Time;durP1;ratioP1;P1;durP2;ratioP2;P2;SDS_P1;SDS_P2;PMS_P1;PMS_P2;Temp;Humidity;BMP_temperature;BMP_pressure;BME280_temperature;BME280_humidity;BME280_pressure;Samples;Min_cycle;Max_cycle;Signal;HPM_P1;HPM_P2
2023/10/17 06:18:49;;;;;;;13.97;5.70;;;;;;;;;;4975276;28;20431;-70
2023/10/17 06:21:19;;;;;;;15.47;5.93;;;;;;;;;;4957785;28;20458;-69
2023/10/17 06:34:19;;;;;;;14.67;6.77;;;;;;;;;;4974694;28;20486;-70
2023/10/17 06:36:49;;;;;;;12.90;7.30;;;;;;;;;;4974576;28;20408;-70
2023/10/17 06:39:24;;;;;;;14.50;6.00;;;;;;;;;;4974433;28;20737;-70
2023/10/17 06:41:51;;;;;;;16.33;8.00;;;;;;;;;;4974580;28;20434;-71
2023/10/17 06:44:23;;;;;;;13.60;7.37;;;;;;;;;;4974288;28;20510;-71
2023/10/17 06:46:56;;;;;;;18.10;7.90;;;;;;;;;;4974201;28;20419;-71
2023/10/17 06:54:41;;;;;;;20.60;7.57;;;;;;;;;;4975537;28;20466;-71
2023/10/17 06:57:20;;;;;;;15.57;7.00;;;;;;;;;;4975835;28;20419;-71
2023/10/17 06:59:53;;;;;;;16.47;7.57;;;;;;;;;;4953924;28;20435;-70
2023/10/17 07:02:27;;;;;;;13.43;6.97;;;;;;;;;;4954826;29;20591;-71
2023/10/17 07:04:55;;;;;;;11.70;7.80;;;;;;;;;;4957817;28;20432;-71
2023/10/17 07:07:22;;;;;;;22.40;9.23;;;;;;;;;;4971828;28;20791;-70
2023/10/17 07:10:16;;;;;;;16.23;6.70;;;;;;;;;;4956504;28;20428;-70
2023/10/17 07:12:40;;;;;;;15.47;6.60;;;;;;;;;;4973634;28;20458;-70
2023/10/17 07:15:18;;;;;;;13.20;7.10;;;;;;;;;;4973857;28;20506;-70
2023/10/17 07:17:48;;;;;;;14.23;6.87;;;;;;;;;;4974027;28;20400;-70
2023/10/17 07:20:29;;;;;;;13.13;6.53;;;;;;;;;;4973941;28;20471;-70
2023/10/17 07:22:57;;;;;;;13.03;6.87;;;;;;;;;;4963355;28;20416;-71
2023/10/17 07:25:24;;;;;;;16.63;6.87;;;;;;;;;;4979062;28;20423;-71
2023/10/17 07:27:52;;;;;;;13.77;6.30;;;;;;;;;;4977711;28;20436;-70
2023/10/17 07:30:35;;;;;;;12.33;6.37;;;;;;;;;;4974046;28;20447;-70
2023/10/17 07:33:04;;;;;;;11.67;7.23;;;;;;;;;;4974253;28;20539;-71
2023/10/17 07:35:30;;;;;;;10.93;6.17;;;;;;;;;;4975480;28;20451;-71
2023/10/17 07:37:57;;;;;;;17.07;7.77;;;;;;;;;;4974383;28;20414;-73
2023/10/17 07:43:07;;;;;;;14.40;6.90;;;;;;;;;;4969476;28;20520;-70
2023/10/17 07:45:39;;;;;;;17.90;7.87;;;;;;;;;;4963161;28;20484;-70
2023/10/17 07:48:23;;;;;;;20.60;7.57;;;;;;;;;;4954777;29;20421;-70
2023/10/17 07:50:54;;;;;;;13.17;6.90;;;;;;;;;;4971985;28;20530;-69
2023/10/17 07:53:20;;;;;;;17.07;7.90;;;;;;;;;;4957402;28;20510;-69
2023/10/17 07:55:52;;;;;;;22.70;8.30;;;;;;;;;;4968101;28;20432;-69
2023/10/17 07:58:35;;;;;;;26.37;9.70;;;;;;;;;;4990390;28;20549;-70
2023/10/17 08:01:03;;;;;;;22.17;8.60;;;;;;;;;;4989334;28;20451;-70
2023/10/17 08:03:29;;;;;;;17.70;8.60;;;;;;;;;;4984251;28;20931;-70
2023/10/17 08:06:21;;;;;;;16.13;8.30;;;;;;;;;;4977646;28;20486;-70
2023/10/17 08:08:44;;;;;;;19.43;8.50;;;;;;;;;;4971380;28;20800;-71
2023/10/17 08:13:56;;;;;;;25.83;11.17;;;;;;;;;;4973570;28;20490;-70
2023/10/17 08:16:29;;;;;;;23.73;9.63;;;;;;;;;;4973289;28;20430;-69
2023/10/17 08:19:12;;;;;;;20.73;9.50;;;;;;;;;;4972756;28;20396;-69
2023/10/17 08:21:48;;;;;;;27.10;10.43;;;;;;;;;;4953793;29;20907;-70
2023/10/17 08:24:14;;;;;;;20.77;10.27;;;;;;;;;;4956229;28;20412;-69
2023/10/17 08:26:42;;;;;;;26.90;10.57;;;;;;;;;;4968643;28;20440;-68
2023/10/17 08:29:09;;;;;;;25.17;9.60;;;;;;;;;;4972607;28;20518;-70
2023/10/17 08:31:36;;;;;;;47.30;11.37;;;;;;;;;;4968758;28;20499;-69
2023/10/17 08:39:26;;;;;;;30.90;10.30;;;;;;;;;;4958010;28;20987;-71
2023/10/17 08:41:57;;;;;;;25.17;11.50;;;;;;;;;;4976697;28;20432;-69
2023/10/17 08:44:28;;;;;;;30.33;10.87;;;;;;;;;;4977025;28;20495;-68
2023/10/17 08:46:54;;;;;;;24.60;10.90;;;;;;;;;;4976945;28;20411;-69
2023/10/17 08:49:21;;;;;;;25.27;10.63;;;;;;;;;;4976646;28;20415;-69
2023/10/17 08:51:48;;;;;;;18.60;8.50;;;;;;;;;;4976717;28;20446;-68
2023/10/17 08:54:14;;;;;;;18.93;9.50;;;;;;;;;;4959273;28;21020;-69
2023/10/17 08:56:41;;;;;;;21.40;9.77;;;;;;;;;;4976564;28;20443;-69
2023/10/17 08:59:09;;;;;;;19.37;9.90;;;;;;;;;;4958752;28;20507;-69
2023/10/17 09:01:37;;;;;;;20.13;8.93;;;;;;;;;;4976462;28;20938;-69
2023/10/17 09:04:04;;;;;;;15.47;9.93;;;;;;;;;;4976643;28;20419;-69
2023/10/17 09:06:37;;;;;;;19.90;9.43;;;;;;;;;;4976533;28;20945;-69
2023/10/17 09:09:17;;;;;;;16.93;8.63;;;;;;;;;;4976249;28;20485;-69
2023/10/17 09:12:11;;;;;;;22.30;10.13;;;;;;;;;;4976358;28;20895;-68
2023/10/17 09:14:40;;;;;;;33.90;11.97;;;;;;;;;;4976367;28;20459;-68
2023/10/17 09:17:16;;;;;;;23.73;10.30;;;;;;;;;;4976066;28;20415;-69
2023/10/17 09:19:46;;;;;;;19.17;10.27;;;;;;;;;;4976107;28;20472;-70
2023/10/17 09:22:15;;;;;;;22.23;10.20;;;;;;;;;;4976178;28;20503;-69
2023/10/17 09:24:45;;;;;;;27.53;11.60;;;;;;;;;;4976403;28;20494;-69
2023/10/17 09:27:15;;;;;;;22.07;11.30;;;;;;;;;;4977130;28;20411;-69
2023/10/17 09:29:50;;;;;;;21.17;10.57;;;;;;;;;;4975929;28;20427;-69
2023/10/17 09:32:35;;;;;;;18.80;10.20;;;;;;;;;;4976139;28;20439;-69
2023/10/17 09:35:22;;;;;;;14.97;8.80;;;;;;;;;;4958359;28;20463;-69
2023/10/17 09:37:51;;;;;;;17.10;8.87;;;;;;;;;;4975849;28;20419;-69
2023/10/17 09:40:25;;;;;;;16.07;8.97;;;;;;;;;;4975596;28;20404;-69
2023/10/17 09:42:51;;;;;;;16.03;8.83;;;;;;;;;;4975894;28;20519;-69
2023/10/17 09:45:17;;;;;;;16.10;9.00;;;;;;;;;;4975535;28;20444;-69
2023/10/17 09:47:44;;;;;;;16.27;9.47;;;;;;;;;;4975393;28;20412;-70
2023/10/17 09:50:12;;;;;;;22.70;9.63;;;;;;;;;;4975386;28;20400;-69
2023/10/17 09:52:38;;;;;;;17.50;8.40;;;;;;;;;;4975547;28;20415;-70
2023/10/17 09:55:06;;;;;;;22.47;9.70;;;;;;;;;;4975428;28;20466;-69
2023/10/17 09:57:34;;;;;;;15.93;8.60;;;;;;;;;;4975364;28;20902;-69
2023/10/17 10:00:15;;;;;;;14.03;8.47;;;;;;;;;;4975370;28;20896;-70
2023/10/17 10:02:43;;;;;;;17.40;8.90;;;;;;;;;;4955564;28;20466;-69
2023/10/17 10:05:25;;;;;;;14.50;9.23;;;;;;;;;;4975346;28;20412;-69
2023/10/17 10:07:54;;;;;;;17.93;9.63;;;;;;;;;;4975153;28;20879;-69
2023/10/17 10:10:39;;;;;;;18.70;11.23;;;;;;;;;;4973057;28;20424;-69
2023/10/17 10:13:07;;;;;;;21.60;9.70;;;;;;;;;;4955696;29;20468;-70
2023/10/17 10:15:49;;;;;;;15.73;10.00;;;;;;;;;;4939318;29;20412;-69
2023/10/17 10:18:16;;;;;;;23.10;10.97;;;;;;;;;;4948495;28;20428;-69
2023/10/17 10:21:12;;;;;;;22.70;10.93;;;;;;;;;;4972989;28;20955;-70
2023/10/17 10:23:41;;;;;;;19.30;9.67;;;;;;;;;;4938142;28;20427;-69
2023/10/17 10:26:17;;;;;;;19.93;10.10;;;;;;;;;;4957443;28;20428;-69
2023/10/17 10:28:43;;;;;;;19.73;10.03;;;;;;;;;;4957730;28;20482;-69
2023/10/17 10:31:21;;;;;;;16.53;9.50;;;;;;;;;;4975381;28;20440;-70
2023/10/17 10:33:50;;;;;;;21.20;11.40;;;;;;;;;;4974838;28;20455;-69
2023/10/17 10:36:19;;;;;;;18.90;9.87;;;;;;;;;;4966973;28;20428;-70
2023/10/17 10:38:46;;;;;;;13.80;9.30;;;;;;;;;;4971181;28;20424;-70
2023/10/17 10:41:13;;;;;;;18.90;9.90;;;;;;;;;;4974684;28;20512;-69
2023/10/17 10:43:43;;;;;;;20.93;11.70;;;;;;;;;;4974533;28;20903;-69
2023/10/17 10:46:09;;;;;;;20.50;11.07;;;;;;;;;;4952271;28;20427;-69
2023/10/17 10:48:38;;;;;;;25.63;12.40;;;;;;;;;;4973696;28;20427;-71
2023/10/17 10:51:04;;;;;;;17.90;10.40;;;;;;;;;;4974241;28;20439;-69
2023/10/17 10:53:32;;;;;;;19.33;11.33;;;;;;;;;;4974287;28;20834;-70
2023/10/17 10:56:02;;;;;;;20.37;11.23;;;;;;;;;;4975047;28;20412;-70
2023/10/17 10:58:51;;;;;;;20.13;10.70;;;;;;;;;;4990967;28;20403;-68
2023/10/17 11:01:18;;;;;;;18.60;11.80;;;;;;;;;;4976653;28;20878;-70
2023/10/17 11:03:46;;;;;;;18.87;10.70;;;;;;;;;;4993552;28;20422;-70
2023/10/17 11:06:13;;;;;;;18.73;9.70;;;;;;;;;;4975581;28;20431;-70
2023/10/17 11:08:43;;;;;;;22.83;10.67;;;;;;;;;;4975547;28;20498;-70
2023/10/17 11:11:10;;;;;;;21.73;10.27;;;;;;;;;;4993064;28;20435;-70
2023/10/17 11:13:40;;;;;;;22.27;10.97;;;;;;;;;;4976084;28;20468;-70
2023/10/17 11:16:06;;;;;;;22.80;12.20;;;;;;;;;;4972554;28;20487;-71
2023/10/17 11:18:36;;;;;;;17.77;10.73;;;;;;;;;;4973546;28;20467;-71
2023/10/17 11:21:04;;;;;;;19.83;11.67;;;;;;;;;;4973629;28;20455;-70
2023/10/17 11:23:32;;;;;;;17.53;11.13;;;;;;;;;;4973823;28;20503;-71
2023/10/17 11:25:59;;;;;;;16.00;10.10;;;;;;;;;;4972983;28;20470;-72
2023/10/17 11:28:27;;;;;;;19.60;10.70;;;;;;;;;;4973276;28;20507;-71
2023/10/17 11:30:53;;;;;;;17.60;10.93;;;;;;;;;;4956429;28;20495;-72
2023/10/17 11:33:29;;;;;;;20.03;10.40;;;;;;;;;;4956185;28;20847;-72
2023/10/17 11:36:19;;;;;;;21.13;11.93;;;;;;;;;;4972728;28;20424;-71
2023/10/17 11:38:43;;;;;;;19.17;10.93;;;;;;;;;;4975521;28;20837;-71
2023/10/17 11:41:09;;;;;;;16.80;9.50;;;;;;;;;;4966464;28;20458;-70
2023/10/17 11:43:51;;;;;;;20.37;10.53;;;;;;;;;;4989700;28;20424;-70
2023/10/17 11:46:39;;;;;;;22.53;11.40;;;;;;;;;;5001129;28;20865;-71
2023/10/17 11:49:21;;;;;;;23.50;10.67;;;;;;;;;;4972276;28;20531;-71
2023/10/17 11:51:57;;;;;;;21.17;10.70;;;;;;;;;;4974044;28;20970;-71
2023/10/17 11:54:24;;;;;;;24.00;11.63;;;;;;;;;;4973835;28;20494;-70
2023/10/17 11:56:50;;;;;;;28.17;11.50;;;;;;;;;;4973979;28;20458;-70
2023/10/17 11:59:19;;;;;;;20.10;11.07;;;;;;;;;;4973468;28;20443;-70
2023/10/17 12:01:45;;;;;;;18.87;11.97;;;;;;;;;;4973918;28;20471;-71
2023/10/17 12:04:16;;;;;;;22.03;12.43;;;;;;;;;;4975405;28;20931;-70
2023/10/17 12:06:44;;;;;;;19.43;11.10;;;;;;;;;;4959365;28;20462;-72
2023/10/17 12:09:22;;;;;;;18.27;11.37;;;;;;;;;;4943151;29;20463;-71
2023/10/17 12:11:49;;;;;;;20.63;11.43;;;;;;;;;;4960489;28;20450;-71
2023/10/17 12:14:22;;;;;;;17.97;11.40;;;;;;;;;;4992700;28;20462;-71
2023/10/17 12:16:48;;;;;;;19.37;11.30;;;;;;;;;;4992400;28;20530;-71
2023/10/17 12:19:17;;;;;;;16.50;10.70;;;;;;;;;;4974681;28;20969;-70
2023/10/17 12:21:48;;;;;;;22.77;11.73;;;;;;;;;;4964531;28;20448;-72
2023/10/17 12:24:16;;;;;;;22.00;12.47;;;;;;;;;;4972996;28;20799;-71
2023/10/17 12:26:45;;;;;;;19.60;12.23;;;;;;;;;;4973029;28;20899;-71
2023/10/17 12:29:11;;;;;;;20.40;10.87;;;;;;;;;;4955545;28;20486;-71
2023/10/17 12:31:37;;;;;;;24.37;11.80;;;;;;;;;;4972631;28;20925;-71
2023/10/17 12:34:03;;;;;;;19.93;11.27;;;;;;;;;;4973041;28;20595;-72
2023/10/17 12:36:30;;;;;;;17.13;11.17;;;;;;;;;;4969797;28;20555;-71
2023/10/17 12:38:57;;;;;;;20.53;11.83;;;;;;;;;;4972530;28;20419;-70
2023/10/17 12:41:25;;;;;;;20.23;11.10;;;;;;;;;;4972767;28;20456;-72
2023/10/17 12:43:51;;;;;;;19.37;10.40;;;;;;;;;;4962750;28;20514;-71
2023/10/17 12:46:17;;;;;;;22.67;10.90;;;;;;;;;;4972929;28;20447;-71
2023/10/17 12:48:43;;;;;;;23.40;11.43;;;;;;;;;;4972477;28;20574;-71
2023/10/17 12:51:12;;;;;;;15.30;9.70;;;;;;;;;;4969526;28;20962;-70
2023/10/17 12:53:38;;;;;;;19.17;12.07;;;;;;;;;;4972758;28;20468;-71
2023/10/17 12:56:05;;;;;;;24.10;12.83;;;;;;;;;;4955359;28;20794;-71
2023/10/17 12:58:32;;;;;;;21.70;12.17;;;;;;;;;;4972549;28;20419;-71
2023/10/17 13:00:58;;;;;;;20.17;11.83;;;;;;;;;;4973272;28;20835;-71
2023/10/17 13:03:28;;;;;;;19.70;11.30;;;;;;;;;;4955700;28;20423;-71
2023/10/17 13:05:54;;;;;;;17.43;10.20;;;;;;;;;;4972887;28;20494;-70
2023/10/17 13:08:21;;;;;;;30.57;12.43;;;;;;;;;;4972422;28;20470;-71
2023/10/17 13:10:50;;;;;;;16.93;10.73;;;;;;;;;;4972334;28;20432;-71
2023/10/17 13:13:17;;;;;;;23.37;12.17;;;;;;;;;;4972696;28;20463;-71
2023/10/17 13:15:43;;;;;;;18.80;11.20;;;;;;;;;;4972167;28;20435;-71
2023/10/17 13:18:10;;;;;;;20.07;11.03;;;;;;;;;;4972389;28;20427;-71
2023/10/17 13:20:36;;;;;;;20.90;11.73;;;;;;;;;;4973351;28;20440;-71
2023/10/17 13:23:07;;;;;;;23.60;10.87;;;;;;;;;;4976065;28;20451;-71
2023/10/17 13:25:38;;;;;;;22.03;11.87;;;;;;;;;;4958721;28;20915;-71
2023/10/17 13:28:04;;;;;;;21.27;12.83;;;;;;;;;;4958600;28;20427;-71
2023/10/17 13:30:34;;;;;;;18.30;11.00;;;;;;;;;;4958709;28;20463;-71
2023/10/17 13:33:00;;;;;;;18.53;10.27;;;;;;;;;;4976071;28;20427;-71
2023/10/17 13:35:27;;;;;;;20.97;11.40;;;;;;;;;;4975790;28;20526;-71
2023/10/17 13:37:54;;;;;;;24.23;11.50;;;;;;;;;;4975861;28;20427;-71
2023/10/17 13:40:21;;;;;;;22.13;12.07;;;;;;;;;;4958044;28;20494;-70
2023/10/17 13:42:50;;;;;;;17.90;11.57;;;;;;;;;;4958712;28;20432;-71
2023/10/17 13:45:16;;;;;;;18.97;10.67;;;;;;;;;;4975574;28;20775;-72
2023/10/17 13:47:42;;;;;;;15.97;10.70;;;;;;;;;;4970615;28;20511;-70
2023/10/17 13:50:13;;;;;;;24.23;12.27;;;;;;;;;;4975140;28;20435;-70
2023/10/17 13:52:39;;;;;;;20.10;11.93;;;;;;;;;;4975590;28;20454;-71
2023/10/17 13:55:09;;;;;;;19.70;11.30;;;;;;;;;;4958324;28;20471;-69
2023/10/17 13:57:35;;;;;;;23.40;13.10;;;;;;;;;;4975135;28;20412;-71
2023/10/17 14:00:01;;;;;;;19.10;11.10;;;;;;;;;;4963495;28;20433;-71
2023/10/17 14:02:27;;;;;;;21.27;11.13;;;;;;;;;;4975286;28;20539;-71
2023/10/17 14:04:53;;;;;;;22.03;10.33;;;;;;;;;;4974254;28;20416;-71
2023/10/17 14:07:19;;;;;;;17.47;10.57;;;;;;;;;;4971731;28;20486;-72
2023/10/17 14:09:45;;;;;;;20.07;10.70;;;;;;;;;;4953625;28;20432;-71
2023/10/17 14:12:11;;;;;;;21.37;11.70;;;;;;;;;;4963037;28;20444;-71
2023/10/17 14:14:39;;;;;;;22.07;11.40;;;;;;;;;;4955801;28;20555;-71
2023/10/17 14:17:06;;;;;;;18.73;11.20;;;;;;;;;;4946581;29;21298;-70
2023/10/17 14:22:04;;;;;;;32.87;10.33;;;;;;;;;;4968365;28;20459;-70
2023/10/17 14:24:49;;;;;;;20.03;10.53;;;;;;;;;;4969894;28;20423;-72
2023/10/17 14:27:16;;;;;;;19.33;11.50;;;;;;;;;;4977180;28;20815;-69
2023/10/17 14:29:45;;;;;;;18.90;11.37;;;;;;;;;;4980251;28;20415;-69
2023/10/17 14:32:11;;;;;;;17.70;10.83;;;;;;;;;;4978893;28;20452;-68
2023/10/17 14:34:37;;;;;;;16.47;10.50;;;;;;;;;;4979194;28;20514;-67
2023/10/17 14:37:05;;;;;;;16.17;10.63;;;;;;;;;;4981032;28;20772;-71
2023/10/17 14:39:31;;;;;;;17.67;10.30;;;;;;;;;;4975557;28;20418;-70
2023/10/17 14:41:57;;;;;;;16.30;10.53;;;;;;;;;;4969481;28;21018;-71
2023/10/17 14:44:24;;;;;;;18.43;9.90;;;;;;;;;;4978958;28;20420;-71
2023/10/17 14:46:52;;;;;;;21.33;10.20;;;;;;;;;;4970787;28;20920;-71
2023/10/17 14:49:19;;;;;;;16.03;9.90;;;;;;;;;;4977654;28;20483;-71
2023/10/17 14:51:45;;;;;;;14.20;9.10;;;;;;;;;;4988742;28;20447;-70
2023/10/17 14:54:13;;;;;;;13.60;9.17;;;;;;;;;;4983130;28;20463;-71
2023/10/17 14:56:39;;;;;;;15.83;9.60;;;;;;;;;;4987585;28;20447;-70
2023/10/17 14:59:05;;;;;;;12.83;8.80;;;;;;;;;;4990074;28;20505;-71
2023/10/17 15:01:31;;;;;;;14.13;9.13;;;;;;;;;;4961410;28;20450;-72
2023/10/17 15:03:59;;;;;;;17.10;10.57;;;;;;;;;;4986378;28;20487;-72
2023/10/17 15:06:25;;;;;;;17.33;10.03;;;;;;;;;;4975281;28;20462;-71
2023/10/17 15:08:51;;;;;;;15.97;9.53;;;;;;;;;;4968150;28;20420;-74
2023/10/17 15:11:20;;;;;;;14.80;9.37;;;;;;;;;;4970791;28;20969;-69
2023/10/17 15:13:46;;;;;;;17.90;10.00;;;;;;;;;;4974083;28;20550;-70
2023/10/17 15:16:15;;;;;;;14.13;8.33;;;;;;;;;;4969769;28;20593;-70
2023/10/17 15:18:41;;;;;;;13.40;7.90;;;;;;;;;;4972413;28;20907;-70
2023/10/17 15:21:11;;;;;;;20.50;9.40;;;;;;;;;;4966438;28;20452;-69
2023/10/17 15:23:40;;;;;;;12.17;8.40;;;;;;;;;;4963145;28;20563;-72
2023/10/17 15:26:06;;;;;;;12.57;8.43;;;;;;;;;;4969621;28;20828;-71
2023/10/17 15:28:33;;;;;;;11.23;7.40;;;;;;;;;;4954159;28;20773;-70
2023/10/17 15:31:05;;;;;;;15.43;8.03;;;;;;;;;;4973177;28;20640;-70
2023/10/17 15:33:34;;;;;;;13.03;7.13;;;;;;;;;;4967501;28;20500;-71
2023/10/17 15:36:02;;;;;;;14.20;7.50;;;;;;;;;;4936987;29;20759;-71
2023/10/17 15:38:30;;;;;;;10.73;7.43;;;;;;;;;;4974724;28;20483;-70
2023/10/17 15:40:56;;;;;;;12.13;7.37;;;;;;;;;;4967230;28;20909;-71
2023/10/17 15:43:22;;;;;;;16.03;7.50;;;;;;;;;;4964683;28;20474;-71
2023/10/17 15:45:54;;;;;;;11.33;7.10;;;;;;;;;;4975189;28;20416;-71
2023/10/17 15:48:20;;;;;;;13.73;7.13;;;;;;;;;;4974985;28;20499;-70
2023/10/17 15:50:46;;;;;;;14.60;7.43;;;;;;;;;;4973103;28;20451;-70
2023/10/17 15:53:12;;;;;;;9.80;6.70;;;;;;;;;;4981163;28;20431;-69
2023/10/17 15:55:39;;;;;;;11.23;7.30;;;;;;;;;;4975111;28;20427;-70
2023/10/17 15:58:05;;;;;;;12.63;7.23;;;;;;;;;;4983048;28;20397;-71
2023/10/17 16:00:31;;;;;;;12.77;7.50;;;;;;;;;;4975423;28;20487;-69
2023/10/17 16:02:58;;;;;;;13.50;7.27;;;;;;;;;;4989894;28;20466;-69
2023/10/17 16:05:27;;;;;;;14.67;7.77;;;;;;;;;;4978563;28;20428;-70
2023/10/17 16:07:53;;;;;;;16.90;7.73;;;;;;;;;;4971011;28;20420;-70
2023/10/17 16:10:19;;;;;;;10.10;6.43;;;;;;;;;;4963163;28;20458;-70
2023/10/17 16:12:48;;;;;;;10.20;6.90;;;;;;;;;;4959359;28;20420;-69
2023/10/17 16:15:14;;;;;;;20.03;7.30;;;;;;;;;;4964685;28;20477;-69
2023/10/17 16:17:40;;;;;;;12.50;7.20;;;;;;;;;;4966027;28;20451;-69
2023/10/17 16:20:17;;;;;;;10.63;6.40;;;;;;;;;;4957756;28;20452;-69
2023/10/17 16:22:43;;;;;;;11.77;6.60;;;;;;;;;;4962231;28;20783;-69
2023/10/17 16:25:09;;;;;;;16.13;7.77;;;;;;;;;;4956935;28;20903;-70
2023/10/17 16:27:35;;;;;;;14.07;7.40;;;;;;;;;;4964747;28;20431;-69
2023/10/17 16:30:08;;;;;;;21.67;7.90;;;;;;;;;;4959801;28;20424;-70
2023/10/17 16:32:34;;;;;;;12.70;7.20;;;;;;;;;;4956549;28;20918;-70
2023/10/17 16:35:01;;;;;;;14.37;8.07;;;;;;;;;;4980846;28;20982;-69
2023/10/17 16:37:27;;;;;;;11.97;7.40;;;;;;;;;;4972938;28;20416;-69
2023/10/17 16:39:54;;;;;;;14.60;8.60;;;;;;;;;;4972780;28;20479;-70
2023/10/17 16:42:20;;;;;;;14.90;8.07;;;;;;;;;;4967618;28;20451;-70
2023/10/17 16:44:47;;;;;;;17.47;9.17;;;;;;;;;;4972761;28;20430;-70
2023/10/17 16:47:15;;;;;;;11.23;7.67;;;;;;;;;;4972546;28;20776;-69
2023/10/17 16:49:41;;;;;;;12.53;7.77;;;;;;;;;;4972675;28;20983;-71
2023/10/17 16:52:07;;;;;;;14.73;8.93;;;;;;;;;;4972608;28;20947;-69
2023/10/17 16:54:38;;;;;;;14.67;8.80;;;;;;;;;;4972427;28;20467;-70
2023/10/17 16:57:05;;;;;;;16.73;8.80;;;;;;;;;;4958032;28;20919;-70
2023/10/17 16:59:31;;;;;;;13.70;6.77;;;;;;;;;;4974590;28;20421;-70
2023/10/17 17:01:58;;;;;;;12.90;8.20;;;;;;;;;;4970690;28;20546;-70
2023/10/17 17:04:24;;;;;;;11.60;7.33;;;;;;;;;;4976322;28;20442;-70
2023/10/17 17:06:50;;;;;;;12.27;6.87;;;;;;;;;;4969696;28;20428;-71
2023/10/17 17:09:22;;;;;;;13.67;7.80;;;;;;;;;;4965278;28;20458;-68
2023/10/17 17:11:52;;;;;;;13.77;7.60;;;;;;;;;;4968727;28;20498;-67
2023/10/17 17:14:18;;;;;;;16.60;8.03;;;;;;;;;;4976117;28;20517;-68
2023/10/17 17:16:45;;;;;;;15.83;8.13;;;;;;;;;;4984266;28;20558;-68
2023/10/17 17:19:12;;;;;;;13.10;8.60;;;;;;;;;;4976185;28;20507;-68
2023/10/17 17:21:41;;;;;;;13.23;7.17;;;;;;;;;;4968361;28;20431;-69
2023/10/17 17:24:08;;;;;;;13.57;8.57;;;;;;;;;;4975759;28;20427;-69
2023/10/17 17:26:34;;;;;;;18.20;8.13;;;;;;;;;;4961568;28;20749;-68
2023/10/17 17:29:00;;;;;;;14.50;8.40;;;;;;;;;;4974399;28;20957;-68
2023/10/17 17:31:26;;;;;;;12.77;7.40;;;;;;;;;;4959715;28;20467;-68
2023/10/17 17:33:52;;;;;;;17.40;8.67;;;;;;;;;;4940899;28;22291;-69
2023/10/17 17:36:18;;;;;;;15.00;8.57;;;;;;;;;;4975347;28;20428;-69
2023/10/17 17:38:45;;;;;;;19.03;8.03;;;;;;;;;;4975434;28;20442;-69
2023/10/17 17:41:11;;;;;;;17.20;8.17;;;;;;;;;;4968144;28;20531;-69
2023/10/17 17:43:37;;;;;;;13.33;8.30;;;;;;;;;;4970912;28;20416;-69
2023/10/17 17:46:08;;;;;;;17.13;9.50;;;;;;;;;;4965953;28;20491;-69
2023/10/17 17:48:34;;;;;;;16.63;9.60;;;;;;;;;;4966921;28;20510;-69
2023/10/17 17:51:00;;;;;;;12.57;8.27;;;;;;;;;;4975880;28;20454;-68
2023/10/17 17:53:26;;;;;;;18.30;8.70;;;;;;;;;;4982133;28;20578;-67
2023/10/17 17:55:52;;;;;;;17.63;9.50;;;;;;;;;;4975744;28;20955;-71
2023/10/17 17:58:18;;;;;;;14.80;9.43;;;;;;;;;;4969591;28;20424;-68
2023/10/17 18:00:50;;;;;;;17.77;9.43;;;;;;;;;;4952631;28;20531;-70
2023/10/17 18:03:18;;;;;;;20.67;11.40;;;;;;;;;;4949405;28;20412;-68
2023/10/17 18:05:44;;;;;;;17.93;11.00;;;;;;;;;;4975004;28;20450;-67
2023/10/17 18:08:10;;;;;;;19.00;11.00;;;;;;;;;;4948011;28;20907;-69
2023/10/17 18:10:37;;;;;;;24.00;10.20;;;;;;;;;;4968619;28;20444;-69
2023/10/17 18:13:03;;;;;;;21.00;11.60;;;;;;;;;;4971312;28;20440;-68
2023/10/17 18:15:32;;;;;;;17.70;9.60;;;;;;;;;;5056593;23;20489;-75
2023/10/17 18:17:58;;;;;;;17.27;9.57;;;;;;;;;;4991681;28;20445;-73
2023/10/17 18:20:25;;;;;;;16.17;9.57;;;;;;;;;;4995137;28;20438;-72
2023/10/17 18:22:51;;;;;;;17.50;10.80;;;;;;;;;;5009558;28;20405;-71
2023/10/17 18:25:17;;;;;;;23.00;10.50;;;;;;;;;;4991870;28;20431;-71
2023/10/17 18:27:43;;;;;;;17.13;10.90;;;;;;;;;;4994289;28;20411;-71
2023/10/17 18:30:09;;;;;;;19.97;10.17;;;;;;;;;;4993862;28;20935;-71
2023/10/17 18:32:35;;;;;;;18.27;11.20;;;;;;;;;;4994834;28;20450;-71
2023/10/17 18:35:02;;;;;;;20.83;10.80;;;;;;;;;;4994774;28;20497;-71
2023/10/17 18:37:30;;;;;;;19.80;11.50;;;;;;;;;;4990774;28;20426;-71
2023/10/17 18:39:57;;;;;;;26.37;13.50;;;;;;;;;;4990742;28;20423;-71
2023/10/17 18:42:24;;;;;;;23.20;13.07;;;;;;;;;;4994137;28;20430;-71
2023/10/17 18:44:50;;;;;;;23.57;12.77;;;;;;;;;;4994408;28;20454;-71
2023/10/17 18:47:16;;;;;;;19.00;12.17;;;;;;;;;;4994708;28;20430;-72
2023/10/17 18:49:42;;;;;;;27.10;13.97;;;;;;;;;;4995441;28;20441;-72
2023/10/17 18:52:08;;;;;;;24.73;12.70;;;;;;;;;;4994927;28;20431;-71
2023/10/17 18:54:34;;;;;;;26.73;13.20;;;;;;;;;;5000699;28;21039;-72
2023/10/17 18:57:00;;;;;;;21.00;12.20;;;;;;;;;;4969396;28;20419;-71
2023/10/17 18:59:26;;;;;;;20.97;12.00;;;;;;;;;;4997828;28;20415;-77
2023/10/17 19:01:52;;;;;;;22.77;13.20;;;;;;;;;;4994937;28;20426;-70
2023/10/17 19:04:19;;;;;;;21.70;12.13;;;;;;;;;;4998716;28;20455;-73
2023/10/17 19:06:45;;;;;;;22.77;13.83;;;;;;;;;;4991374;28;20443;-70
2023/10/17 19:09:14;;;;;;;17.97;11.53;;;;;;;;;;4976369;28;20442;-71
2023/10/17 19:11:40;;;;;;;24.17;12.30;;;;;;;;;;4993297;28;20427;-71
2023/10/17 19:14:06;;;;;;;28.03;13.33;;;;;;;;;;5000373;28;20477;-70
2023/10/17 19:16:36;;;;;;;30.00;14.07;;;;;;;;;;4996542;28;20516;-71
2023/10/17 19:19:03;;;;;;;22.70;11.50;;;;;;;;;;4982113;28;20430;-71
2023/10/17 19:21:30;;;;;;;19.70;11.80;;;;;;;;;;4976508;28;20427;-72
2023/10/17 19:23:56;;;;;;;23.67;11.87;;;;;;;;;;4976420;28;20938;-72
2023/10/17 19:26:23;;;;;;;27.43;11.70;;;;;;;;;;4980215;28;20572;-70
2023/10/17 19:28:50;;;;;;;24.20;12.50;;;;;;;;;;4993879;28;20462;-69
2023/10/17 19:31:19;;;;;;;22.10;12.37;;;;;;;;;;4994095;28;20875;-70
2023/10/17 19:33:45;;;;;;;23.40;11.60;;;;;;;;;;4993498;28;20521;-71
2023/10/17 19:36:11;;;;;;;23.50;11.37;;;;;;;;;;4994159;28;20438;-69
2023/10/17 19:38:37;;;;;;;18.10;11.17;;;;;;;;;;4994104;28;20427;-69
2023/10/17 19:41:03;;;;;;;24.73;12.87;;;;;;;;;;4993542;28;20427;-69
2023/10/17 19:43:29;;;;;;;26.07;14.37;;;;;;;;;;4993171;28;20518;-68
2023/10/17 19:45:59;;;;;;;27.20;13.30;;;;;;;;;;4993029;28;20486;-70
2023/10/17 19:48:26;;;;;;;24.93;12.50;;;;;;;;;;4991991;28;20438;-71
2023/10/17 19:50:52;;;;;;;34.67;12.83;;;;;;;;;;4993099;28;20497;-70
2023/10/17 19:53:18;;;;;;;22.73;12.97;;;;;;;;;;4993413;28;20419;-72
2023/10/17 19:55:45;;;;;;;22.23;12.90;;;;;;;;;;4992433;28;20457;-72
2023/10/17 19:58:11;;;;;;;27.20;13.30;;;;;;;;;;4992212;28;20423;-72
2023/10/17 20:00:37;;;;;;;26.73;13.47;;;;;;;;;;4992609;28;20415;-73
2023/10/17 20:03:03;;;;;;;26.40;11.60;;;;;;;;;;4992843;28;20407;-72
2023/10/17 20:05:29;;;;;;;21.43;11.20;;;;;;;;;;4984726;28;20450;-71
2023/10/17 20:07:56;;;;;;;24.20;13.00;;;;;;;;;;4992411;28;20474;-72
2023/10/17 20:10:22;;;;;;;23.07;12.77;;;;;;;;;;4992562;28;20411;-71
2023/10/17 20:12:49;;;;;;;23.57;12.83;;;;;;;;;;4989145;28;20520;-71
2023/10/17 20:15:18;;;;;;;21.70;12.03;;;;;;;;;;4992237;28;20483;-72
2023/10/17 20:17:44;;;;;;;26.73;13.70;;;;;;;;;;4992493;28;20426;-71
2023/10/17 20:20:12;;;;;;;23.63;12.47;;;;;;;;;;4992720;28;20407;-71
2023/10/17 20:22:40;;;;;;;22.90;13.50;;;;;;;;;;4992953;28;20419;-70
2023/10/17 20:25:06;;;;;;;22.30;13.30;;;;;;;;;;4987122;28;21016;-72
2023/10/17 20:27:32;;;;;;;27.67;15.10;;;;;;;;;;4989660;28;20492;-72
2023/10/17 20:29:58;;;;;;;23.83;12.10;;;;;;;;;;4991347;28;20518;-72
2023/10/17 20:32:24;;;;;;;23.77;12.47;;;;;;;;;;4990484;28;20418;-71
2023/10/17 20:34:50;;;;;;;23.80;13.93;;;;;;;;;;4993028;28;20498;-72
2023/10/17 20:37:17;;;;;;;21.50;13.00;;;;;;;;;;4991103;28;20451;-72
2023/10/17 20:39:43;;;;;;;25.80;13.30;;;;;;;;;;4972703;28;20416;-72
2023/10/17 20:42:11;;;;;;;26.47;13.30;;;;;;;;;;4972551;28;20814;-73
2023/10/17 20:44:38;;;;;;;24.90;14.13;;;;;;;;;;4955685;28;20478;-72
2023/10/17 20:47:07;;;;;;;21.80;12.20;;;;;;;;;;4973154;28;20412;-72
2023/10/17 20:49:36;;;;;;;28.70;12.57;;;;;;;;;;4972912;28;20775;-73
2023/10/17 20:52:09;;;;;;;21.53;13.27;;;;;;;;;;4973200;28;20507;-72
2023/10/17 20:54:38;;;;;;;24.73;12.60;;;;;;;;;;4962108;28;20495;-72
2023/10/17 20:57:04;;;;;;;24.10;12.77;;;;;;;;;;4992375;28;20771;-72
2023/10/17 20:59:30;;;;;;;23.73;12.50;;;;;;;;;;4992231;28;20410;-72
2023/10/17 21:01:56;;;;;;;24.30;12.93;;;;;;;;;;4992621;28;20770;-73
2023/10/17 21:04:22;;;;;;;25.40;13.77;;;;;;;;;;4992610;28;20811;-72
2023/10/17 21:06:49;;;;;;;21.97;13.27;;;;;;;;;;4992257;28;20802;-72
2023/10/17 21:09:15;;;;;;;20.57;12.20;;;;;;;;;;4991794;28;20485;-71
2023/10/17 21:11:42;;;;;;;20.63;11.50;;;;;;;;;;4992245;28;20953;-72
2023/10/17 21:14:09;;;;;;;24.77;12.47;;;;;;;;;;4992131;28;20456;-71
2023/10/17 21:16:35;;;;;;;25.73;11.40;;;;;;;;;;4992221;28;20764;-72
2023/10/17 21:19:02;;;;;;;23.10;12.93;;;;;;;;;;4991927;28;20407;-72